Terminal Aerodrome Forecast
Issued by NWS

Home | Current Version | Previous Version | Text Only | Print | Product List | Glossary On
Versions: 1 2 3 4 5 6 7 8 9 10 11 12 13 14
789
FTAK31 PAJN 242323
TAFAGY
TAF
PAGY 242323Z 2500/2524 23009KT P6SM SCT015 SCT025 OVC060
     FM251700 21013KT P6SM BKN020 OVC040
     FM252200 21017G24KT P6SM -RA BKN020 OVC040
      AMD LTD TO CLD VIS AND WIND=

USA.gov is the U.S. government's official web portal to all federal, state and local government web resources and services.